Time;durP1;ratioP1;P1;durP2;ratioP2;P2;SDS_P1;SDS_P2;PMS_P1;PMS_P2;Temp;Humidity;BMP_temperature;BMP_pressure;BME280_temperature;BME280_humidity;BME280_pressure;Samples;Min_cycle;Max_cycle;Signal;HPM_P1;HPM_P2
2023/05/16 00:59:55;;;;;;;18.63;15.38;;;10.20;99.90;;;;;;2605842;46;20021;31
2023/05/16 01:02:43;;;;;;;13.47;10.83;;;10.20;99.90;;;;;;2602917;54;20101;31
2023/05/16 01:05:33;;;;;;;13.23;11.67;;;10.10;99.90;;;;;;2602580;54;20034;31
2023/05/16 01:08:33;;;;;;;19.50;14.50;;;10.10;99.90;;;;;;2603340;54;20086;31
2023/05/16 01:14:24;;;;;;;14.35;11.80;;;10.10;99.90;;;;;;2603149;54;20899;31
2023/05/16 01:17:28;;;;;;;14.13;10.77;;;10.00;99.90;;;;;;2603689;54;20077;31
2023/05/16 01:33:11;;;;;;;15.48;13.75;;;9.90;99.90;;;;;;2603409;54;20028;31
2023/05/16 01:35:58;;;;;;;15.65;14.05;;;9.80;99.90;;;;;;2602517;54;20065;31
2023/05/16 01:39:00;;;;;;;16.98;13.25;;;9.80;99.90;;;;;;2602890;54;20847;31
2023/05/16 01:42:05;;;;;;;15.68;13.18;;;9.80;99.90;;;;;;2603167;54;20026;31
2023/05/16 01:44:53;;;;;;;13.20;10.43;;;9.70;99.90;;;;;;2603094;54;20121;31
2023/05/16 01:51:23;;;;;;;12.18;10.90;;;9.70;99.90;;;;;;2603167;54;20175;31
2023/05/16 01:57:07;;;;;;;11.77;10.55;;;9.70;99.90;;;;;;2602828;54;20862;31
2023/05/16 01:59:53;;;;;;;15.05;13.02;;;9.70;99.90;;;;;;2619023;46;20093;31
2023/05/16 02:02:37;;;;;;;12.68;10.73;;;9.70;99.90;;;;;;2621345;46;20030;31
2023/05/16 02:05:26;;;;;;;17.80;14.10;;;9.60;99.90;;;;;;2603199;54;20785;31
2023/05/16 02:08:20;;;;;;;24.80;20.25;;;9.60;99.90;;;;;;2621798;46;20254;31
2023/05/16 02:34:15;;;;;;;20.25;15.75;;;9.60;99.90;;;;;;2602564;54;21551;31
2023/05/16 02:43:45;;;;;;;15.55;12.80;;;9.50;99.90;;;;;;2602729;54;20029;31
2023/05/16 02:46:34;;;;;;;12.02;10.88;;;9.50;99.90;;;;;;2620782;46;20057;31
2023/05/16 02:49:27;;;;;;;11.45;10.05;;;9.50;99.90;;;;;;2603294;54;20042;31
2023/05/16 02:55:01;;;;;;;19.20;15.77;;;9.50;99.90;;;;;;2603058;54;20161;31
2023/05/16 02:58:09;;;;;;;20.38;16.33;;;9.40;99.90;;;;;;2608831;39;21388;31
2023/05/16 03:00:50;;;;;;;14.00;12.50;;;9.40;99.90;;;;;;2602979;54;20848;31
2023/05/16 03:03:32;;;;;;;13.45;11.70;;;9.40;99.90;;;;;;2603127;54;21535;31
2023/05/16 03:06:15;;;;;;;11.38;10.27;;;9.40;99.90;;;;;;2621281;46;20069;31
2023/05/16 03:08:50;;;;;;;12.73;11.43;;;9.40;99.90;;;;;;2603096;54;20081;31
2023/05/16 03:11:30;;;;;;;17.13;14.40;;;9.40;99.90;;;;;;2602133;54;20077;31
2023/05/16 03:14:08;;;;;;;11.82;10.25;;;9.30;99.90;;;;;;2620882;46;20250;31
2023/05/16 03:16:44;;;;;;;16.15;13.25;;;9.30;99.90;;;;;;2603031;54;20509;31
2023/05/16 03:19:25;;;;;;;19.23;14.65;;;9.40;99.90;;;;;;2602949;54;20824;31
2023/05/16 03:22:01;;;;;;;15.18;13.65;;;9.30;99.90;;;;;;2621228;46;20133;31
2023/05/16 03:24:56;;;;;;;19.67;17.17;;;9.30;99.90;;;;;;2602924;54;20089;31
2023/05/16 03:27:57;;;;;;;14.93;12.15;;;9.40;99.90;;;;;;2603091;54;20022;31
2023/05/16 03:30:43;;;;;;;15.70;14.07;;;9.40;99.90;;;;;;2603007;54;20918;31
2023/05/16 03:33:29;;;;;;;12.55;10.90;;;9.40;99.90;;;;;;2602925;54;20030;31
2023/05/16 03:36:10;;;;;;;14.05;12.35;;;9.40;99.90;;;;;;2621728;46;20046;31
2023/05/16 03:38:52;;;;;;;9.90;8.90;;;9.50;99.90;;;;;;2602922;54;20076;31
2023/05/16 03:41:33;;;;;;;9.95;8.95;;;9.50;99.90;;;;;;2602807;54;20128;31
2023/05/16 03:44:25;;;;;;;11.30;10.13;;;9.60;99.90;;;;;;2603131;54;21215;31
2023/05/16 03:47:29;;;;;;;11.65;8.90;;;9.70;99.90;;;;;;2602124;54;19950;31
2023/05/16 03:50:38;;;;;;;10.35;9.32;;;9.80;99.90;;;;;;2603155;54;20022;31
2023/05/16 03:53:23;;;;;;;17.40;13.35;;;10.00;99.90;;;;;;2602867;54;20148;31
2023/05/16 03:55:59;;;;;;;10.10;9.07;;;10.10;99.90;;;;;;2621079;46;20526;31
2023/05/16 03:58:37;;;;;;;18.08;13.45;;;10.20;99.90;;;;;;2602779;54;20028;31
2023/05/16 04:01:19;;;;;;;13.30;11.90;;;10.20;99.90;;;;;;2602494;54;19935;31
2023/05/16 04:04:14;;;;;;;14.70;12.63;;;10.40;99.90;;;;;;2620040;47;21487;31
2023/05/16 04:07:13;;;;;;;20.77;15.30;;;10.60;99.90;;;;;;2602820;54;21362;31
2023/05/16 04:09:57;;;;;;;17.95;15.40;;;10.80;99.90;;;;;;2602790;54;20030;31
2023/05/16 04:12:37;;;;;;;15.38;13.80;;;10.90;99.90;;;;;;2603306;47;20853;31
2023/05/16 04:18:18;;;;;;;17.98;14.98;;;11.20;99.90;;;;;;2602815;54;20860;31
2023/05/16 04:21:14;;;;;;;19.40;14.90;;;11.40;99.90;;;;;;2621210;46;20025;31
2023/05/16 04:23:52;;;;;;;37.30;21.80;;;11.50;99.90;;;;;;2603444;54;20871;31
2023/05/16 04:26:34;;;;;;;34.83;21.38;;;11.70;99.90;;;;;;2682363;31;21793;31
2023/05/16 04:29:10;;;;;;;32.67;21.00;;;11.80;99.90;;;;;;2603693;54;20043;31
2023/05/16 04:31:49;;;;;;;21.77;17.33;;;12.00;99.90;;;;;;2603704;54;20038;31
2023/05/16 04:34:26;;;;;;;23.52;16.85;;;12.20;99.90;;;;;;2603816;54;20823;31
2023/05/16 05:17:03;;;;;;;11.40;10.20;;;15.20;99.90;;;;;;2603355;54;20096;31
2023/05/16 05:19:42;;;;;;;11.00;9.90;;;15.40;99.90;;;;;;2603540;54;20042;31
2023/05/16 05:22:19;;;;;;;10.60;9.05;;;15.60;99.90;;;;;;2621911;46;20085;31
2023/05/16 05:24:58;;;;;;;13.57;10.30;;;15.70;99.90;;;;;;2603623;54;20054;31
2023/05/16 05:33:10;;;;;;;9.80;8.80;;;16.10;99.90;;;;;;2606623;46;20112;31
2023/05/16 05:35:47;;;;;;;10.82;8.35;;;16.30;99.90;;;;;;2603525;54;20034;31
2023/05/16 05:38:27;;;;;;;13.52;8.35;;;16.40;99.90;;;;;;2621375;46;20841;31
2023/05/16 05:41:10;;;;;;;13.35;8.80;;;16.50;99.90;;;;;;2602521;54;20994;31
2023/05/16 05:43:46;;;;;;;12.95;9.05;;;16.70;99.90;;;;;;2621577;46;20034;31
2023/05/16 05:46:39;;;;;;;11.85;8.68;;;16.70;99.90;;;;;;2621691;46;21702;31
2023/05/16 05:49:23;;;;;;;10.63;8.00;;;16.90;99.90;;;;;;2603346;54;20026;31
2023/05/16 05:51:59;;;;;;;10.20;8.15;;;16.90;99.90;;;;;;2603391;54;20846;31
2023/05/16 05:54:37;;;;;;;10.80;9.07;;;17.10;99.90;;;;;;2603061;54;20056;31
2023/05/16 05:57:23;;;;;;;10.90;8.30;;;17.10;99.90;;;;;;2603377;54;20096;31
2023/05/16 06:00:03;;;;;;;8.90;8.02;;;17.10;99.90;;;;;;2603314;54;19935;31
2023/05/16 06:02:43;;;;;;;9.63;8.63;;;17.30;99.90;;;;;;2603333;54;20034;31
2023/05/16 06:05:25;;;;;;;10.02;8.93;;;17.50;99.90;;;;;;2603259;54;20928;31
2023/05/16 06:08:07;;;;;;;9.45;8.50;;;17.60;99.90;;;;;;2603387;54;20161;31
2023/05/16 06:10:43;;;;;;;13.25;8.18;;;17.70;99.90;;;;;;2603250;54;20109;31
2023/05/16 06:13:19;;;;;;;10.13;8.40;;;17.80;99.90;;;;;;2602964;54;20786;31
2023/05/16 06:15:55;;;;;;;9.47;8.57;;;17.90;99.90;;;;;;2602914;54;21499;31
2023/05/16 06:18:31;;;;;;;9.50;8.50;;;17.90;99.90;;;;;;2621754;46;20081;31
2023/05/16 06:21:12;;;;;;;14.03;9.37;;;18.10;99.90;;;;;;2603150;54;20788;31
2023/05/16 06:23:52;;;;;;;11.85;8.38;;;18.10;99.90;;;;;;2603128;54;21100;31
2023/05/16 06:26:29;;;;;;;10.23;8.80;;;18.10;99.90;;;;;;2621815;46;20030;31
2023/05/16 06:29:06;;;;;;;;;;;18.20;99.90;;;;;;2603317;54;21102;31
2023/05/16 06:31:50;;;;;;;10.40;8.80;;;18.20;99.90;;;;;;2621892;46;19993;31
2023/05/16 06:34:36;;;;;;;13.30;9.20;;;18.40;99.90;;;;;;2621791;46;20034;31
2023/05/16 06:37:15;;;;;;;9.20;8.40;;;18.50;99.90;;;;;;2621705;46;20034;31
2023/05/16 06:40:20;;;;;;;14.02;9.05;;;18.50;99.90;;;;;;2621298;46;20664;31
2023/05/16 06:42:57;;;;;;;9.85;8.85;;;18.60;99.90;;;;;;2621345;47;20026;31
2023/05/16 06:45:43;;;;;;;9.82;8.15;;;18.60;99.90;;;;;;2603210;54;20043;31
2023/05/16 06:48:21;;;;;;;9.80;8.80;;;18.60;99.90;;;;;;2603589;54;20030;31
2023/05/16 06:57:35;;;;;;;9.68;8.70;;;18.80;99.90;;;;;;2603232;54;20078;31
2023/05/16 07:01:06;;;;;;;10.15;9.05;;;19.00;99.90;;;;;;2621588;46;20034;31
2023/05/16 07:04:08;;;;;;;12.63;9.00;;;19.00;99.90;;;;;;2602977;54;20084;31
2023/05/16 07:07:17;;;;;;;10.20;9.20;;;19.20;99.90;;;;;;2603235;54;20063;31
2023/05/16 07:12:49;;;;;;;10.90;8.85;;;19.50;99.90;;;;;;2622031;46;20050;31
2023/05/16 07:15:29;;;;;;;10.90;8.40;;;19.60;99.90;;;;;;2621502;46;20027;31
2023/05/16 07:18:07;;;;;;;13.10;9.32;;;19.90;99.90;;;;;;2603049;54;20369;31
2023/05/16 07:20:44;;;;;;;10.20;8.80;;;20.20;99.90;;;;;;2603049;54;20034;31
2023/05/16 07:23:21;;;;;;;12.07;9.90;;;20.40;99.90;;;;;;2615246;46;20881;31
2023/05/16 07:25:59;;;;;;;11.27;9.88;;;20.60;99.90;;;;;;2602244;54;19950;31
2023/05/16 07:28:42;;;;;;;9.75;8.75;;;20.60;99.90;;;;;;2602270;54;20862;31
2023/05/16 07:31:21;;;;;;;11.90;9.70;;;20.70;99.90;;;;;;2603350;54;20097;31
2023/05/16 07:34:02;;;;;;;9.93;8.50;;;20.80;99.90;;;;;;2602889;54;20855;31
2023/05/16 07:36:39;;;;;;;9.10;8.30;;;20.90;99.90;;;;;;2602562;54;20961;31
2023/05/16 07:39:15;;;;;;;10.00;9.10;;;21.00;99.90;;;;;;2609466;31;21567;31
2023/05/16 07:41:51;;;;;;;9.68;8.70;;;21.00;99.90;;;;;;2602709;54;20917;31
2023/05/16 07:44:33;;;;;;;9.80;8.00;;;20.80;99.90;;;;;;2601674;54;20026;31
2023/05/16 07:47:11;;;;;;;9.73;8.63;;;20.80;99.90;;;;;;2601755;54;20035;31
2023/05/16 07:49:51;;;;;;;9.13;8.23;;;21.00;99.90;;;;;;2602102;54;20030;31
2023/05/16 07:52:29;;;;;;;9.23;8.27;;;21.00;99.90;;;;;;2620118;46;20057;31
2023/05/16 07:55:11;;;;;;;10.00;8.32;;;21.00;99.90;;;;;;2602315;54;20754;31
2023/05/16 07:57:46;;;;;;;11.95;8.13;;;21.10;99.90;;;;;;2701253;39;22187;31
2023/05/16 08:00:28;;;;;;;8.53;7.83;;;21.40;99.90;;;;;;2602932;54;20927;31
2023/05/16 08:03:04;;;;;;;9.18;7.72;;;21.50;99.90;;;;;;2602984;54;20287;31
2023/05/16 08:05:47;;;;;;;8.68;7.80;;;21.60;99.90;;;;;;2602942;54;20810;31
2023/05/16 08:08:28;;;;;;;10.93;8.13;;;21.70;99.90;;;;;;2602961;54;20046;31
2023/05/16 08:11:08;;;;;;;8.60;7.80;;;21.70;99.90;;;;;;2602051;54;20112;31
2023/05/16 08:13:46;;;;;;;9.02;8.13;;;21.70;99.90;;;;;;2637268;39;20420;31
2023/05/16 08:16:25;;;;;;;9.35;8.43;;;21.40;99.90;;;;;;2602029;54;20971;31
2023/05/16 08:19:01;;;;;;;9.93;8.57;;;21.20;99.90;;;;;;2621201;47;20875;31
2023/05/16 08:21:36;;;;;;;;;;;21.00;99.90;;;;;;2602179;54;20022;31
2023/05/16 08:24:13;;;;;;;7.75;7.00;;;21.00;99.90;;;;;;2602867;54;19958;31
2023/05/16 08:26:52;;;;;;;8.30;7.40;;;21.10;99.90;;;;;;2602924;54;20157;31
2023/05/16 08:29:31;;;;;;;9.20;8.25;;;21.00;99.90;;;;;;2602765;54;20835;31
2023/05/16 08:32:13;;;;;;;8.77;7.95;;;20.80;99.90;;;;;;2601984;54;20916;31
2023/05/16 08:34:51;;;;;;;8.50;7.50;;;21.00;99.90;;;;;;2602531;54;20033;31
2023/05/16 08:37:28;;;;;;;7.97;7.18;;;21.30;99.90;;;;;;2612788;47;20125;31
2023/05/16 08:40:07;;;;;;;9.63;6.75;;;21.30;99.90;;;;;;2602588;54;20868;31
2023/05/16 08:42:44;;;;;;;10.02;6.35;;;21.20;99.90;;;;;;2602811;54;20026;31
2023/05/16 08:45:21;;;;;;;14.23;6.03;;;21.30;99.90;;;;;;2621341;47;20859;31
2023/05/16 08:47:59;;;;;;;6.75;6.15;;;21.60;99.90;;;;;;2602872;54;20880;31
2023/05/16 08:50:37;;;;;;;10.95;7.55;;;21.90;99.90;;;;;;2602670;54;20037;31
2023/05/16 08:53:15;;;;;;;11.38;7.50;;;21.70;99.90;;;;;;2602837;54;20783;31
2023/05/16 08:55:51;;;;;;;10.10;8.52;;;21.70;99.90;;;;;;2602609;54;20044;31
2023/05/16 08:58:28;;;;;;;10.15;7.60;;;21.60;99.90;;;;;;2621242;47;20057;31
2023/05/16 09:01:07;;;;;;;8.07;6.88;;;21.50;99.90;;;;;;2602465;54;20060;31
2023/05/16 09:03:49;;;;;;;8.35;7.00;;;21.20;99.90;;;;;;2602458;54;20026;31
2023/05/16 09:06:26;;;;;;;10.05;7.10;;;21.20;99.90;;;;;;2603530;54;20057;31
2023/05/16 09:09:06;;;;;;;7.03;6.32;;;21.50;99.90;;;;;;2622110;46;20897;31
2023/05/16 09:11:46;;;;;;;9.57;6.57;;;21.80;99.90;;;;;;2622169;46;20030;31
2023/05/16 09:14:22;;;;;;;7.68;6.28;;;22.00;99.90;;;;;;2603176;54;20034;31
2023/05/16 09:17:10;;;;;;;8.07;5.90;;;22.00;99.90;;;;;;2603578;54;20952;31
2023/05/16 09:19:51;;;;;;;6.70;6.03;;;22.10;99.90;;;;;;2603404;54;20018;31
2023/05/16 09:22:27;;;;;;;5.80;5.28;;;21.90;99.90;;;;;;2603412;54;20752;31
2023/05/16 09:25:05;;;;;;;6.82;5.50;;;22.10;99.90;;;;;;2603679;54;20881;31
2023/05/16 09:27:50;;;;;;;7.88;5.78;;;22.40;99.90;;;;;;2603396;54;20034;31
2023/05/16 09:30:26;;;;;;;9.40;6.72;;;22.70;99.90;;;;;;2603518;54;20893;31
2023/05/16 09:33:04;;;;;;;9.23;6.30;;;22.70;99.90;;;;;;2603410;54;20756;31
2023/05/16 09:35:48;;;;;;;8.63;6.82;;;22.70;99.90;;;;;;2603658;54;20034;31
2023/05/16 09:38:25;;;;;;;7.65;6.45;;;22.40;99.90;;;;;;2603270;54;20033;31
2023/05/16 09:41:02;;;;;;;7.80;5.30;;;22.10;99.90;;;;;;2603211;54;20259;31
2023/05/16 09:43:42;;;;;;;7.43;5.50;;;22.30;99.90;;;;;;2603510;54;20038;31
2023/05/16 09:46:22;;;;;;;10.02;6.10;;;22.60;99.90;;;;;;2621788;46;20951;31
2023/05/16 09:49:00;;;;;;;8.25;6.40;;;22.70;99.90;;;;;;2621657;46;20105;31
2023/05/16 09:51:39;;;;;;;9.37;5.10;;;22.80;99.90;;;;;;2621914;46;20033;31
2023/05/16 09:54:16;;;;;;;7.28;6.57;;;23.00;99.90;;;;;;2621608;46;20774;31
2023/05/16 09:57:00;;;;;;;7.53;6.80;;;23.20;99.90;;;;;;2630040;39;20299;31
2023/05/16 10:02:40;;;;;;;8.23;6.20;;;23.40;99.90;;;;;;2601375;54;20061;31
2023/05/16 10:05:18;;;;;;;13.70;6.60;;;23.20;99.90;;;;;;2602990;54;20955;31
2023/05/16 10:07:58;;;;;;;9.43;6.18;;;23.20;99.90;;;;;;2603387;54;20890;31
2023/05/16 10:10:37;;;;;;;7.63;6.57;;;23.30;99.90;;;;;;2621830;46;20105;31
2023/05/16 10:13:15;;;;;;;7.25;6.40;;;23.30;99.90;;;;;;2603149;54;20057;31
2023/05/16 10:15:51;;;;;;;8.25;7.30;;;23.20;99.90;;;;;;2618231;39;20406;31
2023/05/16 10:18:31;;;;;;;8.63;7.82;;;22.90;99.90;;;;;;2629607;39;21230;31
2023/05/16 10:21:09;;;;;;;9.05;7.53;;;22.70;99.90;;;;;;2603205;54;20924;31
2023/05/16 10:23:51;;;;;;;8.90;7.55;;;22.50;99.90;;;;;;2603066;54;20053;31
2023/05/16 10:26:31;;;;;;;10.20;8.10;;;22.40;99.90;;;;;;2603054;54;20034;31
2023/05/16 10:29:07;;;;;;;10.27;8.27;;;22.40;99.90;;;;;;2602561;54;20905;31
2023/05/16 10:31:47;;;;;;;10.45;8.85;;;22.60;99.90;;;;;;2601442;54;20130;31
2023/05/16 10:34:24;;;;;;;16.70;9.15;;;22.70;99.90;;;;;;2601208;54;21466;31
2023/05/16 10:37:00;;;;;;;11.55;9.40;;;22.60;99.90;;;;;;2600333;54;20030;31
2023/05/16 10:42:54;;;;;;;9.80;8.40;;;22.70;99.90;;;;;;2600565;54;20031;31
2023/05/16 10:45:49;;;;;;;9.68;7.82;;;22.70;99.90;;;;;;2601172;54;20935;31
2023/05/16 10:48:56;;;;;;;9.57;7.90;;;22.80;99.90;;;;;;2600912;54;20110;31
2023/05/16 10:51:40;;;;;;;10.30;9.30;;;22.80;99.90;;;;;;2600307;54;20057;31
2023/05/16 11:00:40;;;;;;;12.93;10.60;;;22.70;99.90;;;;;;2600918;54;20273;31
2023/05/16 11:03:40;;;;;;;12.10;10.55;;;22.60;99.90;;;;;;2600892;54;20064;31
2023/05/16 11:09:55;;;;;;;13.30;11.98;;;22.40;99.90;;;;;;2600998;54;20395;31
2023/05/16 11:24:36;;;;;;;20.88;13.52;;;21.90;99.90;;;;;;2600470;39;20275;31
2023/05/16 11:27:34;;;;;;;15.37;13.20;;;21.80;99.90;;;;;;2600523;54;20053;31
2023/05/16 11:30:22;;;;;;;17.58;12.20;;;21.60;99.90;;;;;;2600588;54;20026;31
2023/05/16 11:33:04;;;;;;;16.35;11.80;;;21.50;99.90;;;;;;2607154;46;20027;31
2023/05/16 11:38:43;;;;;;;13.00;11.10;;;21.50;99.90;;;;;;2599807;54;20330;31
2023/05/16 11:41:27;;;;;;;11.82;10.63;;;21.40;99.90;;;;;;2599765;54;20117;31
2023/05/16 11:44:04;;;;;;;13.40;10.70;;;21.40;99.90;;;;;;2600568;54;20068;31
2023/05/16 11:46:52;;;;;;;14.30;12.40;;;21.40;99.90;;;;;;2619134;46;20105;31
2023/05/16 11:52:36;;;;;;;16.57;14.37;;;21.10;99.90;;;;;;2600199;39;21095;31
2023/05/16 11:55:18;;;;;;;15.77;13.68;;;21.10;99.90;;;;;;2600527;54;20309;31
2023/05/16 11:58:18;;;;;;;17.67;13.73;;;21.00;99.90;;;;;;2600775;54;20042;31
2023/05/16 12:00:55;;;;;;;15.80;14.10;;;20.90;99.90;;;;;;2599522;54;20895;31
2023/05/16 12:03:32;;;;;;;19.90;14.30;;;20.90;99.90;;;;;;2599420;54;20038;31
2023/05/16 12:06:32;;;;;;;15.07;13.30;;;20.90;99.90;;;;;;2600138;54;20093;31
2023/05/16 12:09:09;;;;;;;14.50;12.65;;;20.80;99.90;;;;;;2600392;54;20060;31
2023/05/16 12:11:54;;;;;;;14.77;12.80;;;20.70;99.90;;;;;;2600195;54;20042;31
2023/05/16 12:17:21;;;;;;;19.25;14.73;;;20.70;99.90;;;;;;2599214;54;21005;31
2023/05/16 12:20:04;;;;;;;20.23;17.70;;;20.50;99.90;;;;;;2598697;54;20034;31
2023/05/16 12:22:44;;;;;;;19.42;17.02;;;20.40;99.90;;;;;;2618781;47;20066;31
2023/05/16 12:44:19;;;;;;;15.43;13.83;;;19.40;99.90;;;;;;2601015;54;20907;31
2023/05/16 12:46:57;;;;;;;15.00;13.40;;;19.40;99.90;;;;;;2620996;46;21111;31
2023/05/16 12:49:37;;;;;;;16.35;13.20;;;19.30;99.90;;;;;;2603286;54;20878;31
2023/05/16 12:52:19;;;;;;;14.40;12.90;;;19.30;99.90;;;;;;2603532;54;20026;31
2023/05/16 12:57:55;;;;;;;15.83;14.13;;;19.20;99.90;;;;;;2601591;54;20783;31
2023/05/16 13:00:36;;;;;;;18.50;14.60;;;19.20;99.90;;;;;;2602673;54;20274;31
2023/05/16 13:03:20;;;;;;;15.75;14.15;;;19.10;99.90;;;;;;2621696;46;20057;31
2023/05/16 13:05:59;;;;;;;20.00;15.30;;;19.00;99.90;;;;;;2602318;54;20454;31
2023/05/16 13:08:37;;;;;;;17.45;14.30;;;19.00;99.90;;;;;;2602158;54;20058;31
2023/05/16 13:11:17;;;;;;;16.55;13.95;;;18.90;99.90;;;;;;2645059;39;20078;31
2023/05/16 13:14:08;;;;;;;18.70;16.02;;;18.90;99.90;;;;;;2607467;39;20411;31
2023/05/16 13:16:48;;;;;;;21.27;16.52;;;18.90;99.90;;;;;;2603436;54;19935;31
2023/05/16 13:19:27;;;;;;;17.25;15.27;;;18.70;99.90;;;;;;2602187;54;20038;31
2023/05/16 13:22:09;;;;;;;19.95;16.58;;;18.60;99.90;;;;;;2602141;54;20882;31
2023/05/16 13:24:45;;;;;;;19.13;17.00;;;18.50;99.90;;;;;;2602267;54;20768;31
2023/05/16 13:27:24;;;;;;;17.13;15.30;;;18.40;99.90;;;;;;2602156;54;20026;31
2023/05/16 13:30:01;;;;;;;18.05;15.82;;;18.30;99.90;;;;;;2603329;54;20027;31
2023/05/16 13:32:42;;;;;;;18.80;16.57;;;18.20;99.90;;;;;;2603188;54;20766;31
2023/05/16 13:35:20;;;;;;;18.58;16.60;;;18.10;99.90;;;;;;2603325;54;20115;31
2023/05/16 13:37:59;;;;;;;20.98;17.70;;;18.00;99.90;;;;;;2608437;39;20312;31
2023/05/16 13:40:40;;;;;;;18.40;16.50;;;17.90;99.90;;;;;;2621757;46;20038;31
2023/05/16 13:43:19;;;;;;;20.05;17.90;;;17.90;99.90;;;;;;2621359;46;20950;31
2023/05/16 13:45:55;;;;;;;28.30;20.60;;;17.80;99.90;;;;;;2621634;46;20896;31
2023/05/16 13:48:38;;;;;;;27.65;21.85;;;17.70;99.90;;;;;;2603299;54;20046;31
2023/05/16 13:51:14;;;;;;;30.08;22.50;;;17.70;99.90;;;;;;2602262;54;20034;31
2023/05/16 13:53:58;;;;;;;26.80;21.77;;;17.60;99.90;;;;;;2621638;46;20027;31
2023/05/16 13:56:37;;;;;;;25.50;22.13;;;17.50;99.90;;;;;;2603111;54;20061;31
2023/05/16 13:59:16;;;;;;;31.52;22.15;;;17.50;99.90;;;;;;2602918;54;20042;31
2023/05/16 14:04:54;;;;;;;25.10;20.90;;;17.20;99.90;;;;;;2619531;46;20038;31
2023/05/16 14:07:35;;;;;;;27.35;20.95;;;17.20;99.90;;;;;;2602224;54;20995;31
2023/05/16 14:10:14;;;;;;;31.13;22.33;;;17.20;99.90;;;;;;2621583;46;20026;31
2023/05/16 14:12:53;;;;;;;26.65;21.70;;;17.10;99.90;;;;;;2621605;46;20096;31
2023/05/16 14:15:28;;;;;;;28.45;22.13;;;17.00;99.90;;;;;;2603152;54;20950;31
2023/05/16 14:18:06;;;;;;;31.33;23.27;;;17.00;99.90;;;;;;2603114;54;20038;31
2023/05/16 14:20:46;;;;;;;29.58;23.45;;;16.90;99.90;;;;;;2603063;54;20034;31
2023/05/16 14:23:23;;;;;;;32.83;23.00;;;16.80;99.90;;;;;;2621224;46;20046;31
2023/05/16 14:25:58;;;;;;;;;;;16.70;99.90;;;;;;2621980;46;20047;31
2023/05/16 14:28:34;;;;;;;33.35;24.25;;;16.60;99.90;;;;;;2603371;54;20029;31
2023/05/16 14:31:13;;;;;;;33.43;25.37;;;16.50;99.90;;;;;;2602642;54;20093;31
2023/05/16 14:36:30;;;;;;;41.07;25.17;;;16.20;99.90;;;;;;2606323;46;20881;31
2023/05/16 14:39:08;;;;;;;32.90;23.40;;;16.10;99.90;;;;;;2603249;54;20053;31
2023/05/16 14:41:57;;;;;;;33.40;23.60;;;16.10;99.90;;;;;;2603193;54;20036;31
2023/05/16 14:44:34;;;;;;;34.80;23.13;;;16.10;99.90;;;;;;2621452;46;20038;31
2023/05/16 14:47:20;;;;;;;32.90;22.20;;;16.10;99.90;;;;;;2603000;54;20926;31
2023/05/16 14:49:58;;;;;;;31.55;20.85;;;16.00;99.90;;;;;;2602902;54;20042;31
2023/05/16 14:52:43;;;;;;;28.58;21.45;;;16.10;99.90;;;;;;2621492;46;20034;31
2023/05/16 14:55:24;;;;;;;27.07;20.73;;;16.10;99.90;;;;;;2602768;54;20022;31
2023/05/16 14:58:03;;;;;;;29.17;21.93;;;16.10;99.90;;;;;;2621719;46;20820;31
2023/05/16 15:00:39;;;;;;;29.23;22.77;;;16.10;99.90;;;;;;2602006;54;20262;31
2023/05/16 15:03:17;;;;;;;29.15;21.65;;;16.00;99.90;;;;;;2606620;39;22314;31
2023/05/16 15:05:58;;;;;;;34.30;23.88;;;16.00;99.90;;;;;;2602024;54;20044;31
2023/05/16 15:08:40;;;;;;;30.30;23.15;;;15.90;99.90;;;;;;2602226;54;20045;31
2023/05/16 15:11:16;;;;;;;31.73;23.35;;;15.90;99.90;;;;;;2621394;46;24908;31
2023/05/16 15:13:57;;;;;;;34.33;23.58;;;15.90;99.90;;;;;;2603144;54;20081;31
2023/05/16 15:16:33;;;;;;;30.25;23.75;;;15.90;99.90;;;;;;2621282;46;20086;31
2023/05/16 15:19:09;;;;;;;28.60;21.33;;;15.80;99.90;;;;;;2602891;54;20851;31
2023/05/16 15:21:51;;;;;;;29.50;21.97;;;15.80;99.90;;;;;;2602914;54;20758;31
2023/05/16 15:24:35;;;;;;;32.03;21.55;;;15.80;99.90;;;;;;2603024;54;21174;31
2023/05/16 15:27:21;;;;;;;28.08;20.08;;;15.80;99.90;;;;;;2602726;54;20027;31
2023/05/16 15:29:57;;;;;;;29.43;21.90;;;15.80;99.90;;;;;;2603249;54;20026;31
2023/05/16 15:32:33;;;;;;;25.67;21.27;;;15.80;99.90;;;;;;2602975;54;20046;31
2023/05/16 15:35:11;;;;;;;27.13;21.30;;;15.70;99.90;;;;;;2602822;54;20912;31
2023/05/16 15:37:48;;;;;;;31.65;23.05;;;15.70;99.90;;;;;;2602859;54;20035;31
2023/05/16 15:40:30;;;;;;;36.25;23.65;;;15.60;99.90;;;;;;2603219;54;20039;31
2023/05/16 15:43:09;;;;;;;33.57;23.40;;;15.50;99.90;;;;;;2602702;54;20786;31
2023/05/16 15:45:47;;;;;;;30.80;22.63;;;15.40;99.90;;;;;;2602091;54;21087;31
2023/05/16 15:48:27;;;;;;;28.20;21.75;;;15.30;99.90;;;;;;2602744;54;20868;31
2023/05/16 15:51:06;;;;;;;28.92;21.70;;;15.30;99.90;;;;;;2602816;54;19958;31
2023/05/16 15:53:45;;;;;;;27.15;21.17;;;15.20;99.90;;;;;;2602883;54;20173;31
2023/05/16 15:56:26;;;;;;;26.88;21.30;;;15.10;99.90;;;;;;2602671;54;20038;31
2023/05/16 15:59:10;;;;;;;26.40;21.93;;;15.10;99.90;;;;;;2602624;54;20101;31
2023/05/16 16:01:45;;;;;;;28.88;21.35;;;15.10;99.90;;;;;;2602716;54;20767;31
2023/05/16 16:04:30;;;;;;;26.90;20.90;;;15.00;99.90;;;;;;2602108;54;22754;31
2023/05/16 16:07:08;;;;;;;26.20;21.63;;;14.90;99.90;;;;;;2621366;46;20046;31
2023/05/16 16:09:47;;;;;;;25.52;21.98;;;14.90;99.90;;;;;;2620945;47;19990;31
2023/05/16 16:12:27;;;;;;;24.58;21.35;;;14.90;99.90;;;;;;2621128;47;20874;31
2023/05/16 16:15:07;;;;;;;23.38;20.88;;;15.00;99.90;;;;;;2621482;47;20756;31
2023/05/16 16:17:44;;;;;;;28.25;22.83;;;14.90;99.90;;;;;;2603549;54;20030;31
2023/05/16 16:20:31;;;;;;;27.98;23.17;;;14.90;99.90;;;;;;2603521;54;20105;31
2023/05/16 16:23:10;;;;;;;30.85;22.95;;;14.90;99.90;;;;;;2602553;54;20042;31
2023/05/16 16:25:49;;;;;;;38.95;30.52;;;14.80;99.90;;;;;;2603549;54;20069;31
2023/05/16 16:28:31;;;;;;;60.87;49.40;;;14.80;99.90;;;;;;2603249;54;20855;31
2023/05/16 16:31:08;;;;;;;31.20;25.70;;;14.70;99.90;;;;;;2603598;54;20034;31
2023/05/16 16:33:44;;;;;;;27.27;22.53;;;14.70;99.90;;;;;;2621765;46;20030;31
2023/05/16 16:36:22;;;;;;;26.02;21.70;;;14.70;99.90;;;;;;2609071;39;21327;31
2023/05/16 16:38:57;;;;;;;26.33;22.17;;;14.70;99.90;;;;;;2603311;54;20906;31
2023/05/16 16:41:34;;;;;;;25.35;21.08;;;14.70;99.90;;;;;;2603305;54;20869;31
2023/05/16 16:44:16;;;;;;;24.00;21.50;;;14.70;99.90;;;;;;2603288;54;20109;31
2023/05/16 16:46:51;;;;;;;26.60;23.15;;;14.60;99.90;;;;;;2603523;54;20031;31
2023/05/16 16:49:30;;;;;;;27.60;22.77;;;14.60;99.90;;;;;;2603601;54;20768;31
2023/05/16 16:52:08;;;;;;;27.85;23.38;;;14.60;99.90;;;;;;2603521;54;20046;31
2023/05/16 16:54:45;;;;;;;29.23;22.73;;;14.50;99.90;;;;;;2603316;54;20086;31
2023/05/16 16:57:22;;;;;;;33.05;24.13;;;14.50;99.90;;;;;;2629462;39;20414;31
2023/05/16 17:00:04;;;;;;;32.60;24.25;;;14.40;99.90;;;;;;2603478;54;20843;31
2023/05/16 17:02:42;;;;;;;32.67;25.77;;;14.40;99.90;;;;;;2603573;54;20072;31
2023/05/16 17:05:17;;;;;;;30.23;25.45;;;14.40;99.90;;;;;;2621387;46;20026;31
2023/05/16 17:07:57;;;;;;;41.85;37.40;;;14.30;99.90;;;;;;2603463;54;20033;31
2023/05/16 17:10:32;;;;;;;42.40;35.88;;;14.30;99.90;;;;;;2603008;54;20046;31
2023/05/16 17:13:11;;;;;;;36.92;28.90;;;14.30;99.90;;;;;;2603203;54;20049;31
2023/05/16 17:15:52;;;;;;;36.10;30.85;;;14.30;99.90;;;;;;2603284;54;20033;31
2023/05/16 17:18:27;;;;;;;35.38;28.98;;;14.20;99.90;;;;;;2621737;46;20030;31
2023/05/16 17:21:04;;;;;;;52.35;39.90;;;14.20;99.90;;;;;;2603527;54;19935;31
2023/05/16 17:23:40;;;;;;;71.50;51.70;;;14.10;99.90;;;;;;2603186;54;20926;31
2023/05/16 17:26:21;;;;;;;36.75;28.90;;;14.10;99.90;;;;;;2603009;54;20046;31
2023/05/16 17:28:59;;;;;;;36.47;29.20;;;14.10;99.90;;;;;;2603424;54;20027;31
2023/05/16 17:31:38;;;;;;;30.70;26.15;;;14.10;99.90;;;;;;2621878;46;20037;31
2023/05/16 17:34:14;;;;;;;33.25;26.38;;;14.00;99.90;;;;;;2612852;46;20846;31
2023/05/16 17:36:51;;;;;;;32.08;25.20;;;13.90;99.90;;;;;;2602617;54;20858;31
2023/05/16 17:39:28;;;;;;;28.88;24.33;;;13.90;99.90;;;;;;2603125;54;20046;31
2023/05/16 17:42:04;;;;;;;25.38;21.55;;;13.90;99.90;;;;;;2621887;46;20030;31
2023/05/16 17:44:44;;;;;;;26.63;23.63;;;13.90;99.90;;;;;;2621673;46;20050;31
2023/05/16 17:47:26;;;;;;;28.92;24.27;;;13.70;99.90;;;;;;2603233;54;20029;31
2023/05/16 17:50:06;;;;;;;31.35;23.48;;;13.80;99.90;;;;;;2603235;54;20911;31
2023/05/16 17:52:50;;;;;;;28.58;22.98;;;13.80;99.90;;;;;;2603191;54;20084;31
2023/05/16 17:55:28;;;;;;;27.83;22.35;;;13.70;99.90;;;;;;2603480;54;20915;31